Time;durP1;ratioP1;P1;durP2;ratioP2;P2;SDS_P1;SDS_P2;PMS_P1;PMS_P2;Temp;Humidity;BMP_temperature;BMP_pressure;BME280_temperature;BME280_humidity;BME280_pressure;Samples;Min_cycle;Max_cycle;Signal;HPM_P1;HPM_P2
2024/02/11 00:00:10;;;;;;;35.15;17.67;;;;;;;9.70;100.00;98708.78;6085898;19;20047;-70
2024/02/11 00:02:16;;;;;;;34.85;16.42;;;;;;;9.72;100.00;98700.81;6086887;19;20050;-70
2024/02/11 00:04:21;;;;;;;34.80;17.15;;;;;;;9.69;100.00;98696.63;6085767;19;20337;-70
2024/02/11 00:06:27;;;;;;;36.38;17.25;;;;;;;9.71;100.00;98706.97;6086872;19;20026;-70
2024/02/11 00:08:39;;;;;;;37.20;17.38;;;;;;;9.68;100.00;98702.78;6087849;19;20024;-70
2024/02/11 00:10:44;;;;;;;34.25;17.83;;;;;;;9.66;100.00;98700.28;6085763;19;20002;-70
2024/02/11 00:12:49;;;;;;;33.95;17.35;;;;;;;9.70;100.00;98692.22;6087721;19;20042;-70
2024/02/11 00:14:54;;;;;;;34.20;17.27;;;;;;;9.62;100.00;98698.81;6085254;19;20417;-70
2024/02/11 00:17:00;;;;;;;32.08;18.38;;;;;;;9.65;100.00;98688.13;6084880;19;20006;-71
2024/02/11 00:19:06;;;;;;;33.00;16.20;;;;;;;9.63;100.00;98676.88;6085456;19;20039;-70
2024/02/11 00:21:13;;;;;;;32.70;17.58;;;;;;;9.64;100.00;98689.06;6086875;19;20014;-71
2024/02/11 00:23:15;;;;;;;29.25;17.00;;;;;;;9.62;100.00;98687.50;6085961;19;20495;-71
2024/02/11 00:25:24;;;;;;;32.30;15.65;;;;;;;9.59;100.00;98682.47;6086083;19;20013;-69
2024/02/11 00:27:26;;;;;;;33.60;17.75;;;;;;;9.58;100.00;98686.88;6087325;19;20036;-70
2024/02/11 00:29:31;;;;;;;34.88;18.98;;;;;;;9.57;100.00;98679.97;6085998;19;20038;-70
2024/02/11 00:31:38;;;;;;;34.70;17.13;;;;;;;9.57;100.00;98687.81;6087441;19;20038;-70
2024/02/11 00:33:44;;;;;;;30.17;17.23;;;;;;;9.55;100.00;98676.59;6083584;19;20342;-69
2024/02/11 00:35:50;;;;;;;30.60;16.10;;;;;;;9.52;100.00;98678.59;6087708;19;20002;-70
2024/02/11 00:37:55;;;;;;;29.02;16.85;;;;;;;9.56;100.00;98687.94;6087438;19;20006;-70
2024/02/11 00:40:00;;;;;;;32.83;20.00;;;;;;;9.45;100.00;98681.69;6086469;19;20006;-72
2024/02/11 00:42:08;;;;;;;34.30;17.65;;;;;;;9.47;100.00;98689.41;6087772;19;20428;-71
2024/02/11 00:44:12;;;;;;;29.48;16.40;;;;;;;9.47;100.00;98688.59;6084286;19;20010;-72
2024/02/11 00:46:18;;;;;;;29.92;16.23;;;;;;;9.47;100.00;98693.81;6087848;19;20752;-72
2024/02/11 00:48:23;;;;;;;30.13;16.73;;;;;;;9.47;100.00;98694.66;6085156;19;20018;-72
2024/02/11 00:50:31;;;;;;;36.40;17.30;;;;;;;9.48;100.00;98687.63;6082254;19;20160;-72
2024/02/11 00:52:36;;;;;;;29.98;16.55;;;;;;;9.45;100.00;98694.78;6081607;19;20504;-71
2024/02/11 00:54:38;;;;;;;34.70;17.98;;;;;;;9.46;100.00;98693.00;6083317;19;20049;-71
2024/02/11 00:56:44;;;;;;;32.50;17.23;;;;;;;9.47;100.00;98693.81;6082724;19;20024;-71
2024/02/11 00:58:51;;;;;;;35.28;17.13;;;;;;;9.45;100.00;98694.78;6083049;19;20063;-72
2024/02/11 01:00:56;;;;;;;33.83;17.05;;;;;;;9.48;100.00;98690.25;6085845;19;20011;-72
2024/02/11 01:02:59;;;;;;;32.97;18.08;;;;;;;9.47;100.00;98705.16;6083567;19;20041;-72
2024/02/11 01:05:05;;;;;;;33.13;17.20;;;;;;;9.46;100.00;98693.00;6083985;19;20433;-72
2024/02/11 01:07:12;;;;;;;36.80;17.73;;;;;;;9.41;100.00;98695.94;6081391;19;20032;-73
2024/02/11 01:09:17;;;;;;;35.60;17.98;;;;;;;9.43;100.00;98693.22;6083897;19;20578;-73
2024/02/11 01:11:24;;;;;;;29.90;17.38;;;;;;;9.45;100.00;98693.91;6084731;19;20502;-71
2024/02/11 01:13:31;;;;;;;39.13;19.27;;;;;;;9.43;100.00;98699.28;6084516;19;20010;-73
2024/02/11 01:15:39;;;;;;;34.60;17.23;;;;;;;9.48;100.00;98703.34;6084392;19;20003;-71
2024/02/11 01:17:42;;;;;;;31.08;17.73;;;;;;;9.42;100.00;98702.00;6084525;19;20011;-73
2024/02/11 01:19:47;;;;;;;32.13;18.77;;;;;;;9.42;100.00;98702.84;6082567;19;19999;-73
2024/02/11 01:21:53;;;;;;;37.08;18.00;;;;;;;9.40;100.00;98699.50;6082879;19;20013;-70
2024/02/11 01:23:59;;;;;;;33.78;17.23;;;;;;;9.38;100.00;98708.44;6082414;19;20043;-73
2024/02/11 01:26:05;;;;;;;32.63;17.48;;;;;;;9.43;100.00;98708.94;6079434;19;20099;-73
2024/02/11 01:28:11;;;;;;;33.58;17.83;;;;;;;9.35;100.00;98706.03;6083404;19;20420;-73
2024/02/11 01:30:17;;;;;;;33.38;17.00;;;;;;;9.42;100.00;98713.31;6084652;19;20007;-73
2024/02/11 01:32:26;;;;;;;37.75;17.83;;;;;;;9.38;100.00;98716.28;6082762;19;20034;-73
2024/02/11 01:34:31;;;;;;;34.90;16.75;;;;;;;9.39;100.00;98708.31;6083652;19;20015;-74
2024/02/11 01:36:36;;;;;;;36.90;19.23;;;;;;;9.44;100.00;98716.69;6084135;19;20636;-75
2024/02/11 01:38:41;;;;;;;34.30;17.15;;;;;;;9.41;100.00;98705.59;6081708;19;20468;-75
2024/02/11 01:40:46;;;;;;;32.05;17.45;;;;;;;9.40;100.00;98719.63;6082742;19;20232;-75
2024/02/11 01:43:00;;;;;;;34.95;18.52;;;;;;;9.39;100.00;98717.94;6081433;19;20834;-74
2024/02/11 01:45:07;;;;;;;41.58;20.67;;;;;;;9.42;100.00;98715.94;6082035;19;20539;-73
2024/02/11 01:47:12;;;;;;;41.10;19.20;;;;;;;9.41;100.00;98718.69;6082930;19;20002;-72
2024/02/11 01:49:22;;;;;;;35.67;17.70;;;;;;;9.40;100.00;98715.25;6083538;19;20548;-72
2024/02/11 01:51:27;;;;;;;35.67;18.52;;;;;;;9.40;100.00;98715.25;6082636;19;20562;-72
2024/02/11 01:53:33;;;;;;;37.42;18.98;;;;;;;9.38;100.00;98716.28;6079936;19;20010;-72
2024/02/11 01:55:43;;;;;;;35.58;17.55;;;;;;;9.37;100.00;98714.59;6083511;19;20018;-72
2024/02/11 01:57:49;;;;;;;38.30;19.45;;;;;;;9.33;100.00;98716.59;6082854;19;20523;-72
2024/02/11 01:59:57;;;;;;;35.30;19.00;;;;;;;9.42;100.00;98720.34;6082178;19;20006;-72
2024/02/11 02:02:04;;;;;;;37.30;19.40;;;;;;;9.38;100.00;98716.28;6083942;19;20317;-74
2024/02/11 02:04:09;;;;;;;39.05;18.02;;;;;;;9.41;100.00;98714.28;6083418;19;20009;-73
2024/02/11 02:06:18;;;;;;;34.42;17.00;;;;;;;9.45;100.00;98709.66;6083296;19;20003;-73
2024/02/11 02:08:24;;;;;;;33.33;17.02;;;;;;;9.42;100.00;98712.50;6083158;19;20357;-73
2024/02/11 02:10:29;;;;;;;36.70;18.92;;;;;;;9.43;100.00;98709.78;6082098;19;20450;-74
2024/02/11 02:12:33;;;;;;;40.00;18.73;;;;;;;9.47;100.00;98709.56;6079882;19;20495;-72
2024/02/11 02:14:38;;;;;;;;;;;;;;;9.42;100.00;98712.50;6082411;19;20019;-73
2024/02/11 02:16:43;;;;;;;33.58;16.80;;;;;;;9.40;100.00;98706.50;6082190;19;20419;-72
2024/02/11 02:18:49;;;;;;;38.38;19.63;;;;;;;9.48;100.00;98712.09;6082265;19;20379;-71
2024/02/11 02:20:54;;;;;;;37.25;19.02;;;;;;;9.46;100.00;98706.09;6079137;19;20374;-71
2024/02/11 02:23:02;;;;;;;36.85;18.67;;;;;;;9.47;100.00;98706.94;6081874;19;20019;-73
2024/02/11 02:25:10;;;;;;;34.88;17.58;;;;;;;9.40;100.00;98707.38;6083679;19;20084;-72
2024/02/11 02:27:16;;;;;;;38.53;19.90;;;;;;;9.42;100.00;98709.88;6080241;19;20002;-73
2024/02/11 02:29:21;;;;;;;38.90;20.67;;;;;;;9.35;100.00;98706.84;6082614;19;20086;-75
2024/02/11 02:31:26;;;;;;;34.88;17.90;;;;;;;9.38;100.00;98700.56;6081785;19;20069;-73
2024/02/11 02:33:31;;;;;;;36.17;17.83;;;;;;;9.35;100.00;98700.78;6083105;19;20116;-73
2024/02/11 02:35:36;;;;;;;36.10;17.80;;;;;;;9.42;100.00;98702.84;6082782;19;20010;-74
2024/02/11 02:37:41;;;;;;;37.08;19.08;;;;;;;9.45;100.00;98697.41;6080892;19;20007;-72
2024/02/11 02:39:48;;;;;;;35.88;18.67;;;;;;;9.36;100.00;98692.78;6082313;19;20015;-73
2024/02/11 02:41:53;;;;;;;31.35;18.25;;;;;;;9.34;100.00;98691.22;6081375;19;20010;-73
2024/02/11 02:43:58;;;;;;;36.92;18.98;;;;;;;9.34;100.00;98685.97;6081597;19;20323;-73
2024/02/11 02:46:07;;;;;;;35.63;18.85;;;;;;;9.43;100.00;98688.81;6082381;19;20713;-73
2024/02/11 02:48:13;;;;;;;34.28;18.17;;;;;;;9.37;100.00;98693.63;6081992;19;20020;-73
2024/02/11 02:50:15;;;;;;;33.50;18.92;;;;;;;9.36;100.00;98686.72;6082982;19;20014;-74
2024/02/11 02:52:20;;;;;;;33.78;17.75;;;;;;;9.35;100.00;98685.88;6082198;19;20006;-74
2024/02/11 02:54:25;;;;;;;36.50;17.85;;;;;;;9.32;100.00;98688.72;6080498;19;20007;-74
2024/02/11 02:56:34;;;;;;;35.00;17.92;;;;;;;9.31;100.00;98688.81;6086076;19;20031;-74
2024/02/11 02:58:36;;;;;;;30.30;16.10;;;;;;;9.28;100.00;98695.13;6085778;19;20475;-73
2024/02/11 03:00:42;;;;;;;36.45;17.50;;;;;;;9.32;100.00;98695.72;6088820;19;20015;-75
2024/02/11 03:02:48;;;;;;;35.85;17.98;;;;;;;9.31;100.00;98694.06;6084862;19;20007;-74
2024/02/11 03:04:54;;;;;;;34.50;19.35;;;;;;;9.28;100.00;98689.03;6084942;19;20013;-72
2024/02/11 03:06:59;;;;;;;32.28;15.57;;;;;;;9.27;100.00;98689.97;6087090;19;20051;-75
2024/02/11 03:09:07;;;;;;;35.83;17.88;;;;;;;9.23;100.00;98690.19;6088670;19;20019;-74
2024/02/11 03:11:12;;;;;;;33.95;17.83;;;;;;;9.25;100.00;98694.50;6088902;19;20006;-74
2024/02/11 03:13:20;;;;;;;38.17;18.15;;;;;;;9.28;100.00;98694.28;6085333;19;20007;-73
2024/02/11 03:15:25;;;;;;;38.63;18.17;;;;;;;9.23;100.00;98698.03;6087284;19;20011;-74
2024/02/11 03:17:30;;;;;;;36.78;18.27;;;;;;;9.20;100.00;98693.03;6085590;19;20397;-73
2024/02/11 03:19:35;;;;;;;33.33;16.83;;;;;;;9.23;100.00;98698.03;6085855;19;20472;-73
2024/02/11 03:21:41;;;;;;;32.40;16.55;;;;;;;9.23;100.00;98692.81;6086734;19;20007;-73
2024/02/11 03:23:46;;;;;;;39.20;16.20;;;;;;;9.22;100.00;98693.75;6087269;19;20015;-73
2024/02/11 03:25:51;;;;;;;36.17;18.02;;;;;;;9.21;100.00;98689.44;6087534;19;20003;-73
2024/02/11 03:27:54;;;;;;;34.83;16.42;;;;;;;9.25;100.00;98695.31;6088610;19;20038;-73
2024/02/11 03:30:02;;;;;;;;;;;;;;;9.22;100.00;98696.38;6087079;19;20468;-73
2024/02/11 03:32:07;;;;;;;31.35;14.93;;;;;;;9.27;100.00;98700.44;6087232;19;19978;-72
2024/02/11 03:34:12;;;;;;;32.80;15.68;;;;;;;9.28;100.00;98694.28;6088707;19;20039;-73
2024/02/11 03:36:17;;;;;;;33.63;16.42;;;;;;;9.36;100.00;98695.41;6087265;19;20002;-72
2024/02/11 03:38:23;;;;;;;36.40;18.42;;;;;;;9.37;100.00;98696.25;6089146;19;20011;-73
2024/02/11 03:40:32;;;;;;;38.42;18.77;;;;;;;9.35;100.00;98696.38;6087192;19;20029;-73
2024/02/11 03:42:37;;;;;;;36.45;18.35;;;;;;;9.41;100.00;98688.06;6087829;19;20256;-73
2024/02/11 03:44:43;;;;;;;32.08;15.45;;;;;;;9.32;100.00;98698.34;6083175;19;20019;-72
2024/02/11 03:46:50;;;;;;;34.95;16.77;;;;;;;9.32;100.00;98695.72;6086192;19;20031;-72
2024/02/11 03:49:00;;;;;;;37.15;16.60;;;;;;;9.26;100.00;98699.63;6000799;19;2004752;-73
2024/02/11 03:51:07;;;;;;;32.72;14.95;;;;;;;9.28;100.00;98696.91;6086552;19;20022;-73
2024/02/11 03:53:14;;;;;;;34.90;15.82;;;;;;;9.23;100.00;98708.53;6083643;19;20086;-72
2024/02/11 03:55:20;;;;;;;33.88;16.70;;;;;;;9.26;100.00;98701.41;6087564;19;20003;-73
2024/02/11 03:57:22;;;;;;;31.02;15.60;;;;;;;9.28;100.00;98699.53;6087622;19;20334;-72
2024/02/11 03:59:28;;;;;;;30.92;15.32;;;;;;;9.26;100.00;98702.22;6086203;19;20464;-72
2024/02/11 04:01:33;;;;;;;30.05;14.88;;;;;;;9.26;100.00;98698.78;6085428;19;20105;-72
2024/02/11 04:03:42;;;;;;;30.67;15.13;;;;;;;9.23;100.00;98703.28;6085712;19;20504;-73
2024/02/11 04:05:48;;;;;;;31.60;15.20;;;;;;;9.19;100.00;98707.06;6084823;19;20591;-73
2024/02/11 04:07:52;;;;;;;36.38;17.88;;;;;;;9.19;100.00;98706.25;6086171;19;20009;-73
2024/02/11 04:10:02;;;;;;;34.72;15.38;;;;;;;9.21;100.00;98699.94;6085183;19;20007;-73
2024/02/11 04:12:08;;;;;;;34.92;15.25;;;;;;;9.28;100.00;98710.00;6085236;19;20449;-72
2024/02/11 04:14:12;;;;;;;36.42;16.15;;;;;;;9.27;100.00;98706.56;6082808;19;20023;-72
2024/02/11 04:16:18;;;;;;;32.75;15.45;;;;;;;9.31;100.00;98705.38;6085423;19;20463;-72
2024/02/11 04:18:23;;;;;;;30.63;14.35;;;;;;;9.26;100.00;98704.03;6083985;19;20003;-74
2024/02/11 04:20:31;;;;;;;29.02;14.90;;;;;;;9.22;100.00;98706.88;6084319;19;20018;-74
2024/02/11 04:22:37;;;;;;;31.63;13.13;;;;;;;9.23;100.00;98705.91;6083508;19;20467;-73
2024/02/11 04:24:45;;;;;;;30.50;14.60;;;;;;;9.23;100.00;98702.44;6083273;19;20035;-72
2024/02/11 04:26:53;;;;;;;27.00;13.15;;;;;;;9.18;100.00;98705.38;6082684;19;20022;-71
2024/02/11 04:28:58;;;;;;;32.58;13.98;;;;;;;9.21;100.00;98704.34;6083918;19;20041;-73
2024/02/11 04:31:09;;;;;;;35.38;15.25;;;;;;;9.19;100.00;98699.22;6081625;19;20006;-71
2024/02/11 04:33:20;;;;;;;30.17;14.23;;;;;;;9.19;100.00;98707.06;6085737;19;20007;-73
2024/02/11 04:35:26;;;;;;;29.48;14.30;;;;;;;9.17;100.00;98703.72;6084029;19;21709;-72
2024/02/11 04:37:31;;;;;;;28.38;13.30;;;;;;;9.20;100.00;98700.88;6084732;19;20015;-73
2024/02/11 04:39:37;;;;;;;27.52;13.88;;;;;;;9.22;100.00;98712.09;6083909;19;20907;-74
2024/02/11 04:41:42;;;;;;;25.05;11.07;;;;;;;9.12;100.00;98721.53;6084715;19;20019;-72
2024/02/11 04:43:48;;;;;;;20.48;7.68;;;;;;;8.96;100.00;98719.13;6083804;19;20006;-72
2024/02/11 04:45:56;;;;;;;13.93;7.63;;;;;;;8.78;100.00;98722.97;6084132;19;20015;-73
2024/02/11 04:48:03;;;;;;;18.75;7.47;;;;;;;8.68;100.00;98716.69;6081841;19;20015;-72
2024/02/11 04:50:10;;;;;;;17.60;7.45;;;;;;;8.59;100.00;98715.53;6083291;19;20531;-72
2024/02/11 04:52:15;;;;;;;16.13;7.03;;;;;;;8.60;100.00;98725.03;6082115;19;20008;-72
2024/02/11 04:54:25;;;;;;;19.90;7.63;;;;;;;8.56;100.00;98720.97;6082228;19;20744;-71
2024/02/11 04:56:33;;;;;;;20.38;7.97;;;;;;;8.50;100.00;98719.56;6085286;19;20070;-72
2024/02/11 04:58:39;;;;;;;16.88;7.32;;;;;;;8.50;100.00;98730.03;6084103;19;20108;-72
2024/02/11 05:00:45;;;;;;;17.30;7.22;;;;;;;8.42;100.00;98739.34;6083992;19;20006;-72
2024/02/11 05:02:50;;;;;;;15.50;7.57;;;;;;;8.40;100.00;98730.75;6084690;19;20006;-72
2024/02/11 05:04:58;;;;;;;16.13;7.95;;;;;;;8.40;100.00;98730.75;6084214;19;20729;-70
2024/02/11 05:07:07;;;;;;;17.77;7.50;;;;;;;8.40;100.00;98729.00;6083286;19;20630;-71
2024/02/11 05:09:15;;;;;;;14.85;7.40;;;;;;;8.32;100.00;98737.31;6084196;19;20025;-70
2024/02/11 05:11:22;;;;;;;18.23;7.18;;;;;;;8.26;100.00;98742.91;6084347;19;20059;-69
2024/02/11 05:13:30;;;;;;;18.77;7.53;;;;;;;8.24;100.00;98742.19;6083251;19;20387;-70
2024/02/11 05:15:36;;;;;;;16.02;7.18;;;;;;;8.25;100.00;98746.47;6084536;19;20500;-71
2024/02/11 05:17:41;;;;;;;16.60;7.63;;;;;;;8.16;100.00;98751.44;6081117;19;20004;-72
2024/02/11 05:19:44;;;;;;;14.18;6.78;;;;;;;8.16;100.00;98749.66;6077834;19;20053;-71
2024/02/11 05:21:49;;;;;;;18.50;6.68;;;;;;;8.16;100.00;98751.44;6082412;19;20118;-72
2024/02/11 05:23:54;;;;;;;12.27;5.30;;;;;;;8.10;100.00;98765.78;6084269;19;20010;-70
2024/02/11 05:26:02;;;;;;;15.77;5.45;;;;;;;8.10;100.00;98761.38;6081352;19;20028;-73
2024/02/11 05:28:09;;;;;;;12.23;5.82;;;;;;;8.06;100.00;98767.75;6082646;19;20095;-73
2024/02/11 05:30:15;;;;;;;14.13;4.45;;;;;;;8.04;100.00;98768.78;6082301;19;20551;-73
2024/02/11 05:32:20;;;;;;;8.02;3.67;;;;;;;8.02;100.00;98776.72;6084252;19;20031;-73
2024/02/11 05:34:26;;;;;;;16.10;4.55;;;;;;;7.94;100.00;98771.13;6084181;19;20014;-71
2024/02/11 05:36:31;;;;;;;13.70;4.13;;;;;;;7.90;100.00;98778.34;6082702;19;20023;-71
2024/02/11 05:38:39;;;;;;;7.93;3.50;;;;;;;7.84;100.00;98778.69;6085922;19;20882;-71
2024/02/11 05:40:48;;;;;;;10.93;3.88;;;;;;;7.86;100.00;98782.06;6086689;19;20625;-71
2024/02/11 05:42:54;;;;;;;10.43;3.47;;;;;;;7.86;100.00;98779.44;6083713;19;20010;-71
2024/02/11 05:44:59;;;;;;;8.40;3.28;;;;;;;7.86;100.00;98787.28;6083738;19;20435;-71
2024/02/11 05:47:04;;;;;;;8.43;3.42;;;;;;;7.84;100.00;98786.53;6081345;19;20035;-72
2024/02/11 05:49:09;;;;;;;13.18;4.15;;;;;;;7.80;100.00;98777.22;6082703;19;20286;-73
2024/02/11 05:51:16;;;;;;;14.15;4.00;;;;;;;7.79;100.00;98786.00;6083650;19;20006;-73
2024/02/11 05:53:21;;;;;;;13.48;3.88;;;;;;;7.83;100.00;98784.03;6077805;19;20014;-71
2024/02/11 05:55:24;;;;;;;8.98;4.18;;;;;;;7.85;100.00;98784.78;6083287;19;20043;-72
2024/02/11 05:57:29;;;;;;;16.55;4.35;;;;;;;7.76;100.00;98786.19;6083842;19;20010;-72
2024/02/11 05:59:37;;;;;;;8.52;4.05;;;;;;;7.79;100.00;98780.75;6082080;19;20486;-73
2024/02/11 06:01:45;;;;;;;9.60;3.67;;;;;;;7.75;100.00;98786.28;6080497;19;20436;-72
2024/02/11 06:03:50;;;;;;;10.48;3.97;;;;;;;7.79;100.00;98790.38;6081859;19;20015;-72
2024/02/11 06:05:55;;;;;;;7.13;2.97;;;;;;;7.81;100.00;98793.75;6081594;19;20007;-72
2024/02/11 06:08:03;;;;;;;6.32;2.80;;;;;;;7.82;100.00;98800.66;6079857;19;20007;-72
2024/02/11 06:10:11;;;;;;;9.10;3.17;;;;;;;7.77;100.00;98795.72;6082201;19;20007;-72
2024/02/11 06:12:14;;;;;;;6.50;2.70;;;;;;;7.69;100.00;98790.97;6083328;19;20538;-72
2024/02/11 06:14:19;;;;;;;5.07;2.40;;;;;;;7.69;100.00;98796.19;6081397;19;20011;-72
2024/02/11 06:16:24;;;;;;;5.32;2.70;;;;;;;7.67;100.00;98802.44;6082749;19;20082;-74
2024/02/11 06:18:32;;;;;;;5.85;3.08;;;;;;;7.64;100.00;98806.09;6082068;19;20007;-74
2024/02/11 06:20:38;;;;;;;7.47;3.58;;;;;;;7.63;100.00;98806.16;6082840;19;20006;-73
2024/02/11 06:22:44;;;;;;;6.53;3.10;;;;;;;7.65;100.00;98809.53;6082284;19;20363;-73
2024/02/11 06:24:47;;;;;;;5.47;2.95;;;;;;;7.62;100.00;98809.72;6081769;19;20006;-73
2024/02/11 06:26:52;;;;;;;8.25;3.30;;;;;;;7.56;100.00;98808.34;6078445;19;20342;-73
2024/02/11 06:28:57;;;;;;;7.63;3.30;;;;;;;7.66;100.00;98816.44;6080998;19;20030;-72
2024/02/11 06:31:05;;;;;;;11.57;4.10;;;;;;;7.64;100.00;98818.31;6085393;19;20002;-72
2024/02/11 06:33:10;;;;;;;10.38;3.55;;;;;;;7.58;100.00;98810.84;6088256;19;20016;-72
2024/02/11 06:35:19;;;;;;;7.55;2.90;;;;;;;7.58;100.00;98816.94;6089161;19;20066;-72
2024/02/11 06:37:25;;;;;;;12.27;3.00;;;;;;;7.52;100.00;98822.50;6082294;19;20380;-72
2024/02/11 06:39:30;;;;;;;7.65;3.47;;;;;;;7.45;100.00;98824.66;6088931;19;20014;-72
2024/02/11 06:41:37;;;;;;;5.70;2.97;;;;;;;7.46;100.00;98818.50;6088449;19;20014;-72
2024/02/11 06:43:43;;;;;;;7.45;3.10;;;;;;;7.46;100.00;98821.09;6088833;19;20003;-72
2024/02/11 06:45:49;;;;;;;7.85;3.22;;;;;;;7.51;100.00;98825.22;6085717;19;20011;-72
2024/02/11 06:47:54;;;;;;;8.15;3.08;;;;;;;7.57;100.00;98836.13;6085712;19;20023;-72
2024/02/11 06:49:59;;;;;;;5.50;3.25;;;;;;;7.51;100.00;98841.75;6089975;19;20564;-73
2024/02/11 06:52:09;;;;;;;10.70;2.95;;;;;;;7.42;100.00;98830.06;6089170;19;20845;-72
2024/02/11 06:54:14;;;;;;;8.02;3.17;;;;;;;7.52;100.00;98839.97;6085747;19;20390;-73
2024/02/11 06:56:19;;;;;;;12.75;3.78;;;;;;;7.48;100.00;98844.56;6085208;19;20031;-74
2024/02/11 06:58:24;;;;;;;5.65;2.70;;;;;;;7.53;100.00;98862.53;6087890;19;20010;-74
2024/02/11 07:00:29;;;;;;;10.07;3.50;;;;;;;7.45;100.00;98861.25;6084854;19;20102;-73
2024/02/11 07:02:34;;;;;;;9.68;4.72;;;;;;;7.45;100.00;98863.88;6084242;19;20014;-73
2024/02/11 07:04:39;;;;;;;8.13;3.83;;;;;;;7.39;100.00;98872.03;6084610;19;20342;-73
2024/02/11 07:06:46;;;;;;;9.70;4.03;;;;;;;7.38;100.00;98864.31;6083834;19;20002;-72
2024/02/11 07:08:55;;;;;;;7.18;3.40;;;;;;;7.41;100.00;98875.41;6089502;19;19999;-72
2024/02/11 07:11:00;;;;;;;10.52;4.45;;;;;;;7.42;100.00;98884.09;6089778;19;20097;-71
2024/02/11 07:13:06;;;;;;;13.80;4.43;;;;;;;7.41;100.00;98891.09;6089189;19;20392;-71
2024/02/11 07:15:13;;;;;;;7.95;4.32;;;;;;;7.38;100.00;98887.84;6088051;19;20479;-74
2024/02/11 07:17:20;;;;;;;12.48;4.15;;;;;;;7.41;100.00;98893.72;6088758;19;20786;-72
2024/02/11 07:19:26;;;;;;;14.82;5.50;;;;;;;7.40;100.00;98892.03;6090128;19;20010;-72
2024/02/11 07:21:33;;;;;;;15.35;5.13;;;;;;;7.40;100.00;98894.66;6087554;19;20019;-75
2024/02/11 07:23:38;;;;;;;17.08;5.80;;;;;;;7.44;100.00;98903.13;6082424;19;20467;-71
2024/02/11 07:25:46;;;;;;;13.55;5.57;;;;;;;7.42;100.00;98898.00;6087654;19;20010;-72
2024/02/11 07:27:51;;;;;;;17.48;6.25;;;;;;;7.45;100.00;98902.19;6087342;19;20335;-71
2024/02/11 07:29:56;;;;;;;14.23;6.32;;;;;;;7.50;100.00;98908.00;6084794;19;20014;-70
2024/02/11 07:32:02;;;;;;;15.40;7.10;;;;;;;7.51;100.00;98901.03;6086311;19;20014;-71
2024/02/11 07:34:10;;;;;;;21.35;8.10;;;;;;;7.50;100.00;98909.78;6024267;19;20082;-71
2024/02/11 07:36:16;;;;;;;18.50;7.93;;;;;;;7.51;100.00;98911.47;6085971;19;20475;-71
2024/02/11 07:38:21;;;;;;;20.40;7.80;;;;;;;7.51;100.00;98911.47;6084627;19;20044;-71
2024/02/11 07:40:26;;;;;;;22.90;8.00;;;;;;;7.46;100.00;98911.75;6085340;19;20481;-70
2024/02/11 07:42:37;;;;;;;16.63;8.10;;;;;;;7.51;100.00;98914.94;6081870;19;20011;-73
2024/02/11 07:44:42;;;;;;;23.60;7.68;;;;;;;7.52;100.00;98910.53;6084620;19;20007;-71
2024/02/11 07:46:47;;;;;;;16.25;8.02;;;;;;;7.50;100.00;98917.63;6084339;19;20014;-71
2024/02/11 07:48:53;;;;;;;15.68;7.93;;;;;;;7.50;100.00;98913.22;6085739;19;20471;-70
2024/02/11 07:51:01;;;;;;;17.95;7.95;;;;;;;7.53;100.00;98920.91;6083963;19;21103;-71
2024/02/11 07:53:08;;;;;;;18.15;7.22;;;;;;;7.56;100.00;98931.19;6081936;19;20455;-70
2024/02/11 07:55:13;;;;;;;16.35;8.23;;;;;;;7.54;100.00;98922.59;6085423;19;20031;-70
2024/02/11 07:57:19;;;;;;;19.73;7.75;;;;;;;7.58;100.00;98928.47;6088505;19;20007;-70
2024/02/11 07:59:27;;;;;;;19.75;8.38;;;;;;;7.59;100.00;98932.78;6086081;19;20457;-70
2024/02/11 08:01:37;;;;;;;15.93;7.47;;;;;;;7.55;100.00;98929.47;6087806;19;20484;-71
2024/02/11 08:03:40;;;;;;;20.33;7.80;;;;;;;7.60;100.00;98929.22;6003971;19;2005220;-71
2024/02/11 08:05:46;;;;;;;18.15;7.90;;;;;;;7.57;100.00;98932.00;6085072;19;19999;-72
2024/02/11 08:07:51;;;;;;;18.17;6.55;;;;;;;7.60;100.00;98931.84;6082699;19;20006;-71
2024/02/11 08:09:56;;;;;;;17.85;6.82;;;;;;;7.66;100.00;98931.47;6085966;19;20002;-71
2024/02/11 08:12:02;;;;;;;16.42;7.20;;;;;;;7.70;100.00;98938.19;6087624;19;20388;-71
2024/02/11 08:14:10;;;;;;;20.95;7.95;;;;;;;7.68;100.00;98940.91;6085953;19;20018;-70
2024/02/11 08:16:21;;;;;;;16.70;7.50;;;;;;;7.70;100.00;98939.03;6084665;19;20031;-71
2024/02/11 08:18:23;;;;;;;14.70;7.00;;;;;;;7.69;100.00;98947.00;6084015;19;20006;-70
2024/02/11 08:20:32;;;;;;;13.40;5.95;;;;;;;7.77;100.00;98946.53;6078948;19;20078;-72
2024/02/11 08:22:38;;;;;;;15.30;7.05;;;;;;;7.78;100.00;98951.66;6084398;19;20471;-72
2024/02/11 08:24:43;;;;;;;16.48;6.93;;;;;;;7.77;100.00;98949.16;6083131;19;20031;-70
2024/02/11 08:26:48;;;;;;;19.95;7.55;;;;;;;7.83;100.00;98949.63;6083949;19;20014;-69
2024/02/11 08:28:59;;;;;;;22.10;7.97;;;;;;;7.83;100.00;98946.16;6084810;19;20109;-69
2024/02/11 08:31:04;;;;;;;27.30;6.95;;;;;;;7.80;100.00;98954.19;6082412;19;20646;-69
2024/02/11 08:33:12;;;;;;;19.50;7.20;;;;;;;7.83;100.00;98956.63;6083505;19;20025;-69
2024/02/11 08:35:18;;;;;;;18.35;6.80;;;;;;;7.86;100.00;98954.66;6085286;19;20506;-69
2024/02/11 08:37:23;;;;;;;23.60;9.13;;;;;;;7.91;100.00;98954.38;6083515;19;20026;-69
2024/02/11 08:39:29;;;;;;;16.08;7.25;;;;;;;7.91;100.00;98963.06;6086253;19;20015;-73
2024/02/11 08:41:34;;;;;;;16.52;7.97;;;;;;;7.92;100.00;98963.91;6086661;19;20014;-69
2024/02/11 08:43:40;;;;;;;20.83;8.00;;;;;;;7.92;100.00;98971.75;6085526;19;20047;-69
2024/02/11 08:45:45;;;;;;;17.58;7.85;;;;;;;7.97;100.00;98974.09;6082426;19;20009;-69
2024/02/11 08:47:51;;;;;;;17.88;8.02;;;;;;;8.01;100.00;98989.53;6085937;19;20017;-70
2024/02/11 08:49:57;;;;;;;17.13;8.23;;;;;;;7.96;100.00;98985.50;6085709;19;20007;-70
2024/02/11 08:52:02;;;;;;;21.33;8.32;;;;;;;7.96;100.00;98994.19;6084811;19;20011;-69
2024/02/11 08:54:07;;;;;;;22.27;8.98;;;;;;;8.02;100.00;99000.81;6081784;19;20086;-70
2024/02/11 08:56:12;;;;;;;23.08;8.88;;;;;;;7.97;100.00;99002.88;6084925;19;20028;-70
2024/02/11 08:58:18;;;;;;;20.13;8.27;;;;;;;8.09;100.00;98996.94;6084534;19;20010;-70
2024/02/11 09:00:25;;;;;;;17.27;8.32;;;;;;;8.10;100.00;98998.59;6087092;19;20038;-70
2024/02/11 09:02:30;;;;;;;14.73;6.28;;;;;;;8.07;100.00;99007.47;6086586;19;20468;-70
2024/02/11 09:04:37;;;;;;;18.23;7.82;;;;;;;8.01;100.00;99007.00;6082761;19;20047;-71
2024/02/11 09:06:48;;;;;;;21.13;8.15;;;;;;;8.00;100.00;99008.75;6085004;19;20129;-70
2024/02/11 09:08:54;;;;;;;20.15;7.82;;;;;;;8.07;100.00;99009.25;6084907;19;20006;-70
2024/02/11 09:11:03;;;;;;;26.05;8.55;;;;;;;8.09;100.00;99004.78;6085750;19;20097;-69
2024/02/11 09:13:10;;;;;;;17.73;9.05;;;;;;;8.06;100.00;99003.19;6086186;19;20070;-69
2024/02/11 09:15:16;;;;;;;17.38;7.72;;;;;;;8.09;100.00;99002.16;6087325;19;20011;-70
2024/02/11 09:17:22;;;;;;;20.20;8.50;;;;;;;8.14;100.00;99015.81;6085438;19;20006;-69
2024/02/11 09:19:31;;;;;;;20.90;9.32;;;;;;;8.09;100.00;99015.25;6087124;19;20029;-69
2024/02/11 09:21:36;;;;;;;24.30;9.10;;;;;;;8.12;100.00;99018.50;6083474;19;20007;-68
2024/02/11 09:23:45;;;;;;;25.80;9.93;;;;;;;8.09;100.00;99020.47;6085326;19;20014;-69
2024/02/11 09:25:50;;;;;;;20.58;8.27;;;;;;;8.17;100.00;99014.78;6080265;19;22375;-71
2024/02/11 09:27:55;;;;;;;20.30;9.07;;;;;;;8.25;100.00;99021.22;6087268;19;20038;-70
2024/02/11 09:30:00;;;;;;;20.63;9.05;;;;;;;8.16;100.00;99019.16;6085309;19;20481;-69
2024/02/11 09:32:06;;;;;;;17.80;8.63;;;;;;;8.14;100.00;99019.25;6087651;19;20043;-69
2024/02/11 09:34:13;;;;;;;22.50;9.68;;;;;;;8.29;100.00;99024.50;6082186;19;20550;-70
2024/02/11 09:36:18;;;;;;;19.60;7.93;;;;;;;8.32;100.00;99029.53;6083833;19;20018;-68
2024/02/11 09:38:23;;;;;;;20.42;9.07;;;;;;;8.30;100.00;99027.03;6081155;19;20078;-69
2024/02/11 09:40:35;;;;;;;25.02;9.38;;;;;;;8.38;100.00;99033.59;6083081;19;20010;-70
2024/02/11 09:42:39;;;;;;;19.05;8.98;;;;;;;8.26;100.00;99035.97;6084625;19;20448;-72